sensor_id;sensor_type;location;lat;lon;timestamp;pressure;altitude;pressure_sealevel;temperature;humidity
75923;BME280;64602;47.542;19.090;2023-03-24T07:06:05;100029.59;;;12.17;55.71
75923;BME280;64602;47.542;19.090;2023-03-24T07:11:08;100006.72;;;12.44;55.46
75923;BME280;64602;47.542;19.090;2023-03-24T07:16:11;100010.28;;;12.55;54.37
75923;BME280;64602;47.542;19.090;2023-03-24T07:21:13;100008.59;;;12.79;53.67
75923;BME280;64602;47.542;19.090;2023-03-24T07:26:15;99983.75;;;13.01;53.31
75923;BME280;64602;47.542;19.090;2023-03-24T07:31:17;100010.88;;;13.32;52.47
75923;BME280;64602;47.542;19.090;2023-03-24T07:36:19;100001.97;;;13.66;52.17
75923;BME280;64602;47.542;19.090;2023-03-24T07:41:22;99982.47;;;13.88;51.36
75923;BME280;64602;47.542;19.090;2023-03-24T07:46:25;99979.34;;;14.05;49.98
75923;BME280;64602;47.542;19.090;2023-03-24T07:51:28;99987.44;;;14.20;49.71
75923;BME280;64602;47.542;19.090;2023-03-24T07:56:30;99984.81;;;14.34;48.92
75923;BME280;64602;47.542;19.090;2023-03-24T08:01:32;99998.69;;;14.72;48.69
75923;BME280;64602;47.542;19.090;2023-03-24T08:06:37;99996.56;;;14.93;48.05
75923;BME280;64602;47.542;19.090;2023-03-24T08:11:40;99985.63;;;15.17;47.16
75923;BME280;64602;47.542;19.090;2023-03-24T08:16:42;99973.91;;;15.35;46.34
75923;BME280;64602;47.542;19.090;2023-03-24T08:21:46;99959.19;;;15.69;45.41
75923;BME280;64602;47.542;19.090;2023-03-24T08:26:48;99957.16;;;16.13;44.58
75923;BME280;64602;47.542;19.090;2023-03-24T08:31:51;99946.50;;;16.11;44.69
75923;BME280;64602;47.542;19.090;2023-03-24T08:36:53;99947.00;;;16.46;43.42
75923;BME280;64602;47.542;19.090;2023-03-24T08:41:55;99939.94;;;16.73;43.04
75923;BME280;64602;47.542;19.090;2023-03-24T08:46:59;99927.03;;;17.01;42.09
75923;BME280;64602;47.542;19.090;2023-03-24T08:52:02;99934.63;;;17.32;41.46
75923;BME280;64602;47.542;19.090;2023-03-24T08:57:04;99926.69;;;17.30;41.53
75923;BME280;64602;47.542;19.090;2023-03-24T09:02:09;99939.75;;;17.47;41.32
75923;BME280;64602;47.542;19.090;2023-03-24T09:07:12;99928.38;;;17.54;41.10
75923;BME280;64602;47.542;19.090;2023-03-24T09:12:14;99939.84;;;17.92;40.65
75923;BME280;64602;47.542;19.090;2023-03-24T09:17:17;99940.03;;;18.18;40.18
75923;BME280;64602;47.542;19.090;2023-03-24T09:22:19;99926.88;;;18.37;39.08
75923;BME280;64602;47.542;19.090;2023-03-24T09:27:22;99934.84;;;18.79;38.63
75923;BME280;64602;47.542;19.090;2023-03-24T09:32:24;99922.50;;;19.25;38.11
75923;BME280;64602;47.542;19.090;2023-03-24T09:37:31;99929.47;;;19.31;37.67
75923;BME280;64602;47.542;19.090;2023-03-24T09:42:37;99922.34;;;19.65;37.15
75923;BME280;64602;47.542;19.090;2023-03-24T09:47:44;99906.62;;;19.65;37.06
75923;BME280;64602;47.542;19.090;2023-03-24T09:52:53;99885.06;;;20.02;36.42
75923;BME280;64602;47.542;19.090;2023-03-24T09:58:03;99889.81;;;20.40;36.11
75923;BME280;64602;47.542;19.090;2023-03-24T10:03:20;99873.41;;;20.53;35.57
75923;BME280;64602;47.542;19.090;2023-03-24T10:08:29;99868.06;;;20.86;35.49
75923;BME280;64602;47.542;19.090;2023-03-24T10:18:55;99873.84;;;22.10;33.11
75923;BME280;64602;47.542;19.090;2023-03-24T10:24:18;99866.34;;;22.56;32.58
75923;BME280;64602;47.542;19.090;2023-03-24T10:29:33;99859.88;;;22.40;33.02
75923;BME280;64602;47.542;19.090;2023-03-24T10:34:37;99855.53;;;22.06;33.32
75923;BME280;64602;47.542;19.090;2023-03-24T10:39:40;99841.69;;;22.39;32.83
75923;BME280;64602;47.542;19.090;2023-03-24T10:44:50;99832.75;;;23.48;31.69
75923;BME280;64602;47.542;19.090;2023-03-24T10:50:00;99860.12;;;23.93;30.30
75923;BME280;64602;47.542;19.090;2023-03-24T10:55:18;99826.53;;;23.79;30.18
75923;BME280;64602;47.542;19.090;2023-03-24T11:00:29;99842.19;;;24.19;29.44
75923;BME280;64602;47.542;19.090;2023-03-24T11:05:34;99830.56;;;24.61;28.63
75923;BME280;64602;47.542;19.090;2023-03-24T11:10:37;99820.59;;;25.11;28.13
75923;BME280;64602;47.542;19.090;2023-03-24T11:15:52;99818.59;;;25.27;27.72
75923;BME280;64602;47.542;19.090;2023-03-24T11:20:59;99800.56;;;25.60;27.29
75923;BME280;64602;47.542;19.090;2023-03-24T11:31:09;99799.09;;;26.09;26.89
75923;BME280;64602;47.542;19.090;2023-03-24T11:41:40;99777.50;;;26.02;26.40
75923;BME280;64602;47.542;19.090;2023-03-24T11:46:44;99771.81;;;25.72;26.45
75923;BME280;64602;47.542;19.090;2023-03-24T11:51:50;99750.13;;;25.81;26.67
75923;BME280;64602;47.542;19.090;2023-03-24T11:56:56;99744.53;;;26.00;26.53
75923;BME280;64602;47.542;19.090;2023-03-24T12:24:01;99700.41;;;26.26;24.99
75923;BME280;64602;47.542;19.090;2023-03-24T12:40:37;99665.87;;;26.00;24.83
75923;BME280;64602;47.542;19.090;2023-03-24T12:45:43;99667.38;;;25.48;24.93
75923;BME280;64602;47.542;19.090;2023-03-24T12:56:35;99637.63;;;26.25;24.56
75923;BME280;64602;47.542;19.090;2023-03-24T13:01:49;99647.62;;;26.56;24.35
75923;BME280;64602;47.542;19.090;2023-03-24T13:07:06;99642.50;;;26.61;24.17
75923;BME280;64602;47.542;19.090;2023-03-24T13:12:16;99623.44;;;26.97;23.90
75923;BME280;64602;47.542;19.090;2023-03-24T13:17:28;99625.69;;;27.22;23.54
75923;BME280;64602;47.542;19.090;2023-03-24T13:22:35;99616.53;;;27.21;23.45
75923;BME280;64602;47.542;19.090;2023-03-24T13:27:40;99606.03;;;27.07;23.67
75923;BME280;64602;47.542;19.090;2023-03-24T13:32:59;99610.66;;;26.93;23.92
75923;BME280;64602;47.542;19.090;2023-03-24T13:43:15;99620.41;;;26.76;24.03
75923;BME280;64602;47.542;19.090;2023-03-24T13:48:37;99597.25;;;26.68;23.87
75923;BME280;64602;47.542;19.090;2023-03-24T13:54:15;99597.91;;;28.47;22.04
75923;BME280;64602;47.542;19.090;2023-03-24T13:59:25;99601.72;;;33.24;17.06
75923;BME280;64602;47.542;19.090;2023-03-24T14:04:28;99597.37;;;36.76;14.17
75923;BME280;64602;47.542;19.090;2023-03-24T14:09:31;99595.06;;;36.58;13.92
75923;BME280;64602;47.542;19.090;2023-03-24T14:15:12;99586.75;;;38.98;12.44
75923;BME280;64602;47.542;19.090;2023-03-24T14:20:27;99584.06;;;42.03;10.52
75923;BME280;64602;47.542;19.090;2023-03-24T14:25:31;99547.97;;;34.09;15.83
75923;BME280;64602;47.542;19.090;2023-03-24T14:30:34;99539.69;;;31.43;18.33
75923;BME280;64602;47.542;19.090;2023-03-24T14:35:44;99557.88;;;37.24;13.99
75923;BME280;64602;47.542;19.090;2023-03-24T14:40:50;99547.59;;;32.62;17.36
75923;BME280;64602;47.542;19.090;2023-03-24T14:46:04;99536.13;;;28.59;21.29
75923;BME280;64602;47.542;19.090;2023-03-24T14:56:39;99536.19;;;26.15;24.35
75923;BME280;64602;47.542;19.090;2023-03-24T15:01:45;99518.84;;;26.29;24.53
75923;BME280;64602;47.542;19.090;2023-03-24T15:06:49;99520.31;;;25.58;25.38
75923;BME280;64602;47.542;19.090;2023-03-24T15:11:53;99511.41;;;24.77;26.22
75923;BME280;64602;47.542;19.090;2023-03-24T15:17:07;99516.47;;;24.13;27.31
75923;BME280;64602;47.542;19.090;2023-03-24T15:22:16;99487.88;;;23.54;27.97
75923;BME280;64602;47.542;19.090;2023-03-24T15:27:24;99485.97;;;23.22;28.67
75923;BME280;64602;47.542;19.090;2023-03-24T15:32:28;99472.12;;;22.75;29.52
75923;BME280;64602;47.542;19.090;2023-03-24T15:37:38;99475.06;;;22.66;29.84
75923;BME280;64602;47.542;19.090;2023-03-24T15:42:49;99483.09;;;22.55;30.13
75923;BME280;64602;47.542;19.090;2023-03-24T15:47:52;99487.53;;;22.44;30.34
75923;BME280;64602;47.542;19.090;2023-03-24T15:58:22;99483.06;;;21.99;31.00
75923;BME280;64602;47.542;19.090;2023-03-24T16:03:25;99480.34;;;21.87;31.28
75923;BME280;64602;47.542;19.090;2023-03-24T16:08:33;99478.78;;;21.73;31.56
75923;BME280;64602;47.542;19.090;2023-03-24T16:13:39;99465.75;;;21.46;31.92
75923;BME280;64602;47.542;19.090;2023-03-24T16:18:44;99469.16;;;21.30;32.11
75923;BME280;64602;47.542;19.090;2023-03-24T16:23:48;99465.28;;;21.07;32.55
75923;BME280;64602;47.542;19.090;2023-03-24T16:28:52;99477.47;;;20.94;32.78
75923;BME280;64602;47.542;19.090;2023-03-24T16:33:55;99480.06;;;20.78;33.07
75923;BME280;64602;47.542;19.090;2023-03-24T16:38:59;99477.41;;;20.57;33.47
75923;BME280;64602;47.542;19.090;2023-03-24T16:44:02;99462.84;;;20.35;33.89
75923;BME280;64602;47.542;19.090;2023-03-24T16:49:05;99466.38;;;20.23;34.06
75923;BME280;64602;47.542;19.090;2023-03-24T16:54:07;99470.03;;;20.15;34.35
75923;BME280;64602;47.542;19.090;2023-03-24T16:59:10;99462.25;;;19.96;34.80
75923;BME280;64602;47.542;19.090;2023-03-24T17:04:17;99455.88;;;19.83;35.03
75923;BME280;64602;47.542;19.090;2023-03-24T17:09:20;99467.22;;;19.82;35.14
75923;BME280;64602;47.542;19.090;2023-03-24T17:14:23;99467.63;;;19.72;35.60
75923;BME280;64602;47.542;19.090;2023-03-24T17:19:25;99453.97;;;19.54;35.95
75923;BME280;64602;47.542;19.090;2023-03-24T17:24:29;99450.47;;;19.45;36.32
75923;BME280;64602;47.542;19.090;2023-03-24T17:29:36;99457.94;;;19.45;36.61
75923;BME280;64602;47.542;19.090;2023-03-24T17:34:41;99456.91;;;19.28;37.38
75923;BME280;64602;47.542;19.090;2023-03-24T17:39:43;99456.66;;;19.12;38.44
75923;BME280;64602;47.542;19.090;2023-03-24T17:44:45;99433.16;;;18.94;38.57
75923;BME280;64602;47.542;19.090;2023-03-24T17:49:47;99456.12;;;18.89;38.82
75923;BME280;64602;47.542;19.090;2023-03-24T17:54:49;99445.97;;;18.81;38.38
75923;BME280;64602;47.542;19.090;2023-03-24T17:59:51;99444.03;;;18.73;38.37
75923;BME280;64602;47.542;19.090;2023-03-24T18:04:54;99430.84;;;18.57;38.47
75923;BME280;64602;47.542;19.090;2023-03-24T18:09:56;99433.12;;;18.55;38.64
75923;BME280;64602;47.542;19.090;2023-03-24T18:14:58;99444.59;;;18.49;38.80
75923;BME280;64602;47.542;19.090;2023-03-24T18:20:00;99458.34;;;18.49;38.62
75923;BME280;64602;47.542;19.090;2023-03-24T18:25:11;99456.88;;;18.51;38.49
75923;BME280;64602;47.542;19.090;2023-03-24T18:30:14;99451.75;;;18.41;38.56
75923;BME280;64602;47.542;19.090;2023-03-24T18:35:17;99441.38;;;18.47;38.37
75923;BME280;64602;47.542;19.090;2023-03-24T18:40:20;99456.06;;;18.51;38.45
75923;BME280;64602;47.542;19.090;2023-03-24T18:45:22;99445.94;;;18.43;38.42
75923;BME280;64602;47.542;19.090;2023-03-24T18:50:24;99457.84;;;18.47;38.63
75923;BME280;64602;47.542;19.090;2023-03-24T18:55:26;99458.03;;;18.42;38.79
75923;BME280;64602;47.542;19.090;2023-03-24T19:00:28;99457.41;;;18.45;38.78
75923;BME280;64602;47.542;19.090;2023-03-24T19:05:31;99460.47;;;18.43;39.04
75923;BME280;64602;47.542;19.090;2023-03-24T19:10:35;99459.50;;;18.39;39.33
75923;BME280;64602;47.542;19.090;2023-03-24T19:15:37;99440.62;;;18.29;39.51
75923;BME280;64602;47.542;19.090;2023-03-24T19:20:40;99436.28;;;18.28;39.72
75923;BME280;64602;47.542;19.090;2023-03-24T19:25:42;99443.06;;;18.30;39.92
75923;BME280;64602;47.542;19.090;2023-03-24T19:30:45;99435.78;;;18.26;40.25
75923;BME280;64602;47.542;19.090;2023-03-24T19:35:48;99445.66;;;18.18;41.27
75923;BME280;64602;47.542;19.090;2023-03-24T19:40:51;99428.25;;;17.97;42.28
75923;BME280;64602;47.542;19.090;2023-03-24T19:45:54;99431.66;;;17.85;41.95
75923;BME280;64602;47.542;19.090;2023-03-24T19:50:57;99427.75;;;17.68;42.75
75923;BME280;64602;47.542;19.090;2023-03-24T19:55:59;99436.78;;;17.60;43.81
75923;BME280;64602;47.542;19.090;2023-03-24T20:01:02;99442.41;;;17.46;44.26
75923;BME280;64602;47.542;19.090;2023-03-24T20:06:05;99430.78;;;17.32;44.38
75923;BME280;64602;47.542;19.090;2023-03-24T20:11:10;99418.31;;;17.08;45.24
75923;BME280;64602;47.542;19.090;2023-03-24T20:16:12;99413.66;;;17.09;45.32
75923;BME280;64602;47.542;19.090;2023-03-24T20:21:18;99412.16;;;16.94;45.49
75923;BME280;64602;47.542;19.090;2023-03-24T20:26:21;99400.19;;;16.81;45.55
75923;BME280;64602;47.542;19.090;2023-03-24T20:31:23;99423.75;;;16.91;45.10
75923;BME280;64602;47.542;19.090;2023-03-24T20:36:26;99461.31;;;16.91;45.04
75923;BME280;64602;47.542;19.090;2023-03-24T20:41:28;99455.19;;;16.94;45.30
75923;BME280;64602;47.542;19.090;2023-03-24T20:46:30;99458.56;;;16.91;45.65
